Historyczne dane pomiarowe

Dodano dane terminowe – wersja testowa.

Dane z okresu 1951-2019

Wersja bazy: 1.34 [2019-03-16, lista zmian], aktualizacja planowana na 2019-04-15

Dane meteo z obszaru Polski uzyskane na podstawie danych udostępnionych przez Instytut Meteorologii i Gospodarki Wodnej – Państwowy Instytut Badawczy.

 

Wybierz Datę:    

       

TemperaturaWilgotnośćWiatrCiśnienieOpadyŚniegCzas trwania zjawisk
 Stacja t tx tn tng RH VA  wxwx mslp ppp RRR   cm mm wxwxwxwxwxwxwx
1999-08-14 16.7 23.0 10.0- 64.3- 2.3 3.3---- 1.0------------
1999-08-13 15.7 20.3 10.7- 64.5- 6.7 5.7---- 0.0------------
1999-08-12 15.4 19.3 11.2- 72.0- 5.0 5.7---- 0.0------------
1999-08-11 19.4 23.6 15.7- 73.0- 2.0 6.7---- 0.0------------
1999-08-10 22.0 26.1 17.2- 74.8- 7.3 3.3---- 0.0------------
1999-08-09 23.1 27.4 18.5- 66.0- 5.7 3.0---- 0.0------------
1999-08-08 24.1 30.4 18.7- 70.0- 3.0 2.0---- 0.0------------
1999-08-07 23.7 31.1 15.2- 59.8- 3.7 1.0---- 0.0------------
1999-08-06 23.4 28.6 18.8- 60.0- 2.7 2.7---- 0.0------------
1999-08-05 21.6 29.6 12.3- 55.3- 7.0 1.0---- 0.0------------
1999-08-04 19.8 27.8 11.3- 56.8- 4.7 1.0---- 0.0------------
1999-08-03 19.6 27.7 10.5- 51.5- 2.3 2.3---- 0.0------------
1999-08-02 19.5 27.2 11.2- 50.8- 2.0 3.3---- 0.0------------
1999-08-01 20.8 27.8 13.4- 50.8- 3.0 3.3---- 0.0------------
1999-07-31 20.9 28.2 12.6- 47.5- 2.3 6.3---- 0.0------------
1999-07-30 20.4 27.0 12.2- 53.0- 1.3 4.7---- 0.0------------
1999-07-29 19.7 25.7 11.8- 53.0- 2.7 5.0---- 0.0------------
1999-07-28 18.7 25.7 11.1- 58.0- 1.3 5.3---- 0.0------------
1999-07-27 18.4 23.3 13.0- 59.0- 0.3 3.7---- 0.0------------
1999-07-26 21.9 29.1 14.7- 63.3- 3.7 3.3---- 0.0------------
1999-07-25 20.5 25.5 14.2- 67.8- 6.3 3.0---- 0.0------------
1999-07-24 17.9 22.3 13.7- 65.3- 4.0 4.3---- 0.0------------
1999-07-23 17.5 22.4 13.6- 67.3- 7.0 4.7---- 0.0------------
1999-07-22 19.5 23.8 16.7- 58.0- 5.7 5.3---- 0.0------------
1999-07-21 23.1 28.5 17.9- 70.8- 4.0 5.3---- 0.0------------
1999-07-20 24.0 32.1 15.9- 56.5- 2.7 4.3---- 0.0------------
1999-07-19 24.0 30.6 16.0- 58.0- 4.7 2.7---- 0.0------------
1999-07-18 22.2 28.8 14.2- 61.8- 1.7 2.0---- 0.0------------
1999-07-17 19.5 25.6 12.0- 68.8- 2.0 2.0---- 0.0------------
1999-07-16 17.6 22.9 12.2- 69.8- 4.0 3.7---- 0.0------------
1999-07-15 16.7 20.8 14.2- 76.0- 3.3 5.7---- 1.0------------
1999-07-14 21.0 27.0 17.9- 83.3- 7.3 5.7---- 10.7------------
1999-07-13 22.6 29.1 17.5- 77.5- 3.7 5.7---- 0.0------------
1999-07-12 21.2 29.1 15.7- 67.0- 3.3 9.3---- 19.4------------
1999-07-11 21.3 27.9 13.1- 54.8- 4.3 5.7---- 0.0------------
1999-07-10 21.3 27.2 15.0- 56.0- 0.3 7.0---- 0.0------------
1999-07-09 19.6 25.5 15.2- 73.0- 6.7 7.0---- 0.0------------
1999-07-08 16.7 17.9 15.6- 93.3- 8.0 4.7---- 3.9------------
1999-07-07 18.8 24.2 16.5- 90.5- 8.0 4.3---- 0.0------------
1999-07-06 24.9 30.2 20.3- 68.0- 4.7 4.3---- 8.8------------
1999-07-05 25.5 33.2 16.3- 61.0- 1.7 4.7---- 0.0------------
1999-07-04 22.7 31.4 17.4- 71.5- 3.7 3.0---- 1.3------------
1999-07-03 21.4 27.2 14.8- 72.8- 3.0 2.7---- 0.0------------
1999-07-02 19.0 23.9 15.8- 85.0- 6.7 2.7---- 0.0------------
1999-07-01 19.7 24.4 16.2- 90.5- 6.7 2.7---- 2.9------------
1999-06-30 20.2 25.7 11.4- 62.5- 2.7 4.0---- 0.0------------
1999-06-29 19.5 24.7 13.7- 66.5- 2.0 2.3---- 0.0------------
1999-06-28 21.0 28.1 16.2- 79.0- 5.3 3.3---- 0.2------------
1999-06-27 20.9 27.5 13.6- 65.8- 3.3 7.3---- 1.0------------
1999-06-26 15.2 21.0 7.2- 77.0- 4.3 2.3---- 0.0------------
1999-06-25 12.9 18.8 8.5- 77.3- 5.0 3.7---- 2.4------------
1999-06-24 13.1 17.9 5.9- 69.8- 3.7 2.0---- 0.0------------
1999-06-23 12.6 16.7 8.7- 80.5- 7.3 5.0---- 0.0------------
1999-06-22 10.3 12.3 9.2- 93.8- 8.0 6.0---- 14.6------------
1999-06-21 15.7 20.6 12.2- 84.8- 7.0 5.0---- 4.0------------
1999-06-20 19.0 23.9 15.1- 81.3- 6.3 2.7---- 0.0------------
1999-06-19 16.2 18.1 14.3- 92.3- 7.7 3.7---- 0.1------------
1999-06-18 17.2 21.2 13.7- 92.8- 7.7 2.3---- 2.0------------
1999-06-17 18.5 21.5 16.0- 86.8- 7.7 1.7---- 0.0------------
1999-06-16 17.3 21.4 12.9- 78.5- 5.7 1.3---- 0.0------------
542.7 ms

 

Źródłem pochodzenia danych jest Instytut Meteorologii i Gospodarki Wodnej – Państwowy Instytut Badawczy. Dane Instytutu Meteorologii i Gospodarki Wodnej – Państwowego Instytutu Badawczego zostały przetworzone.

Dane źródłowe można odnaleźć na stronie https://dane.imgw.pl